Thunder radar more information blitzortung!


Radar de pluja more information rain snow radar


Visita la nostra xarxa de llocs de meteo:

Template documentation
and downloads

And another site



No particular awareness of the weather is required.    There are no Weather-warnings

Pagina Historial Weather Underground text

Diari Resum May 20, 2017 Unitats:  Imperial    Mètric   Tant
« Previous Dia
SegĂźent Dia »
Diari Setmana Mensual Anual Personalitzada
  Maxima: Minima: Media:
Temperatura: TemperatureC °F 11.3 °F 19.4 °F
Punt de rosada: DewpointC °F 5.4 °F 8.1 °F
Humitat: Humidity % 28 % 51 %
Wind Speed: WindSpeedKMH mph 0.0 mph 6.7 mph
RĂ fegues de vent: WindSpeedGustKMH mph - -
Vent:- - SSE
Pression baro: PressurehPa in 1019.9 in -
Precipitacions: 0.0 in    
Historical Graphs
 
 
Dades de taula per May 20, 2017
Temps Temperatura Punt de rosada Pression baro Vent Wind Speed RĂ fegues de vent Humitat Rainfall Rate (Hourly)
TemperatureC °F DewpointC °F PressurehPa in Calm     Humidity % HourlyPrecipMM in
00:00 12.7 °F 7.2 °F 1021.9 in Calm   4.8 mph 69 % 0.0 in
00:02 14.7 °F 7.9 °F 1019.9 in NE 2.3 mph   64 % 0.0 in
00:07 14.7 °F 7.9 °F 1019.9 in NNE 1.9 mph   64 % 0.0 in
00:10 12.5 °F 6.9 °F 1021.9 in Calm   4.8 mph 69 % 0.0 in
00:20 12.4 °F 6.9 °F 1021.9 in NNE 1.6 mph 3.2 mph 69 % 0.0 in
00:30 12.2 °F 6.7 °F 1021.9 in NNE 1.6 mph 1.6 mph 69 % 0.0 in
00:40 12.1 °F 6.6 °F 1021.9 in Calm     69 % 0.0 in
00:50 12.0 °F 6.7 °F 1021.9 in NNE 1.6 mph 3.2 mph 70 % 0.0 in
01:00 11.8 °F 6.5 °F 1021.9 in Calm     70 % 0.0 in
01:10 11.7 °F 6.4 °F 1021.9 in Calm   1.6 mph 70 % 0.0 in
01:20 11.6 °F 6.3 °F 1021.9 in Calm   3.2 mph 70 % 0.0 in
01:30 11.5 °F 6.2 °F 1021.9 in Calm   1.6 mph 70 % 0.0 in
01:50 11.3 °F 6.0 °F 1021.9 in NE 1.6 mph 1.6 mph 70 % 0.0 in
02:00 11.6 °F 6.5 °F 1021.9 in Calm   1.6 mph 71 % 0.0 in
02:10 12.0 °F 6.9 °F 1022.9 in Calm   3.2 mph 71 % 0.0 in
02:20 12.6 °F 7.5 °F 1022.9 in Calm   1.6 mph 71 % 0.0 in
02:30 12.9 °F 7.3 °F 1022.9 in East 1.6 mph 3.2 mph 69 % 0.0 in
02:40 13.1 °F 7.6 °F 1022.9 in Calm   1.6 mph 69 % 0.0 in
02:50 13.2 °F 7.4 °F 1022.9 in ESE 1.6 mph 4.8 mph 68 % 0.0 in
03:00 13.5 °F 7.7 °F 1022.9 in East 1.6 mph 3.2 mph 68 % 0.0 in
03:10 13.6 °F 7.8 °F 1022.9 in East 3.2 mph 4.8 mph 68 % 0.0 in
03:20 13.9 °F 7.9 °F 1022.9 in ENE 3.2 mph 4.8 mph 67 % 0.0 in
03:30 14.2 °F 7.9 °F 1023.9 in NE 3.2 mph 4.8 mph 66 % 0.0 in
03:40 14.6 °F 8.3 °F 1023.9 in NE 1.6 mph 4.8 mph 66 % 0.0 in
03:50 15.0 °F 8.2 °F 1023.9 in NE 4.8 mph 4.8 mph 64 % 0.0 in
04:00 15.0 °F 8.4 °F 1023.9 in ENE 1.6 mph 4.8 mph 65 % 0.0 in
04:10 15.8 °F 9.0 °F 1023.9 in ENE 1.6 mph 4.8 mph 64 % 0.0 in
04:20 15.8 °F 8.8 °F 1023.9 in ENE 3.2 mph 3.2 mph 63 % 0.0 in
04:30 16.5 °F 8.9 °F 1023.9 in SE 3.2 mph 4.8 mph 61 % 0.0 in
04:40 16.6 °F 8.8 °F 1023.9 in SSW 1.6 mph 3.2 mph 60 % 0.0 in
04:50 16.7 °F 8.9 °F 1023.9 in SW 3.2 mph 6.4 mph 60 % 0.0 in
05:00 17.0 °F 8.2 °F 1023.9 in SW 4.8 mph 4.8 mph 56 % 0.0 in
05:10 18.4 °F 9.4 °F 1023.9 in South 1.6 mph 4.8 mph 56 % 0.0 in
05:20 18.5 °F 8.7 °F 1023.9 in South 1.6 mph 6.4 mph 53 % 0.0 in
05:30 18.8 °F 9.0 °F 1023.9 in SSE 3.2 mph 6.4 mph 53 % 0.0 in
10:30 18.7 °F 8.6 °F 1023.9 in WSW 3.7 mph 5.0 mph 52 % 0.0 in
10:35 18.7 °F 8.3 °F 1023.9 in East 3.7 mph 3.7 mph 51 % 0.0 in
10:40 18.9 °F 8.6 °F 1023.9 in ENE 4.7 mph 4.7 mph 51 % 0.0 in
10:45 19.2 °F 7.9 °F 1023.9 in SSE 3.7 mph 3.7 mph 48 % 0.0 in
10:50 19.5 °F 8.5 °F 1023.9 in West 14.5 mph 14.5 mph 49 % 0.0 in
10:55 19.3 °F 8.3 °F 1023.9 in SW 14.8 mph 14.8 mph 49 % 0.0 in
11:00 19.7 °F 8.4 °F 1023.9 in SSW 7.4 mph 7.4 mph 48 % 0.0 in
11:05 20.3 °F 8.6 °F 1023.9 in South 7.6 mph 7.6 mph 47 % 0.0 in
11:10 20.4 °F 8.1 °F 1023.9 in SW 7.4 mph 7.4 mph 45 % 0.0 in
11:15 20.9 °F 8.8 °F 1023.9 in WSW 7.4 mph 7.4 mph 46 % 0.0 in
11:20 20.8 °F 8.4 °F 1023.9 in East 9.3 mph 9.3 mph 45 % 0.0 in
11:25 20.9 °F 8.5 °F 1023.9 in WSW 11.1 mph 11.1 mph 45 % 0.0 in
11:30 21.2 °F 8.4 °F 1023.9 in SSE 9.3 mph 9.3 mph 44 % 0.0 in
11:35 20.8 °F 8.1 °F 1023.9 in SSW 13.0 mph 13.0 mph 44 % 0.0 in
11:40 20.9 °F 7.8 °F 1023.9 in WSW 14.8 mph 14.8 mph 43 % 0.0 in
11:45 21.0 °F 7.6 °F 1023.9 in SW 3.7 mph 3.7 mph 42 % 0.0 in
11:50 21.6 °F 8.1 °F 1023.9 in SSE 9.3 mph 9.3 mph 42 % 0.0 in
11:55 22.3 °F 8.8 °F 1023.9 in South 5.6 mph 5.6 mph 42 % 0.0 in
12:00 22.0 °F 8.5 °F 1023.9 in SSE 7.4 mph 7.4 mph 42 % 0.0 in
12:01 22.0 °F 8.1 °F 1023.9 in SE 15.8 mph 15.8 mph 41 % 0.0 in
12:06 22.1 °F 8.2 °F 1023.9 in SW 6.1 mph 6.1 mph 41 % 0.0 in
12:11 22.2 °F 8.3 °F 1022.9 in WSW 9.3 mph 9.3 mph 41 % 0.0 in
12:16 22.3 °F 8.4 °F 1022.9 in SSE 9.3 mph 9.3 mph 41 % 0.0 in
12:21 22.5 °F 8.6 °F 1022.9 in West 9.3 mph 9.3 mph 41 % 0.0 in
12:26 22.6 °F 8.3 °F 1022.9 in SW 13.0 mph 13.0 mph 40 % 0.0 in
12:31 22.2 °F 7.6 °F 1022.9 in WSW 7.4 mph 7.4 mph 39 % 0.0 in
12:36 22.5 °F 7.8 °F 1022.9 in WSW 7.9 mph 7.9 mph 39 % 0.0 in
12:41 22.9 °F 8.2 °F 1022.9 in SW 7.4 mph 7.4 mph 39 % 0.0 in
12:46 23.2 °F 8.1 °F 1022.9 in SW 5.6 mph 5.6 mph 38 % 0.0 in
12:51 22.9 °F 7.8 °F 1022.9 in WSW 9.3 mph 9.3 mph 38 % 0.0 in
12:56 22.8 °F 7.7 °F 1022.9 in SSE 14.8 mph 14.8 mph 38 % 0.0 in
13:01 22.4 °F 7.4 °F 1022.9 in ESE 5.6 mph 5.6 mph 38 % 0.0 in
13:06 22.2 °F 6.8 °F 1022.9 in ENE 5.6 mph 5.6 mph 37 % 0.0 in
13:11 22.9 °F 7.8 °F 1022.9 in SW 5.0 mph 5.0 mph 38 % 0.0 in
13:16 23.8 °F 7.8 °F 1022.9 in SE 7.4 mph 7.4 mph 36 % 0.0 in
13:21 24.0 °F 8.0 °F 1022.9 in West 8.7 mph 8.7 mph 36 % 0.0 in
13:26 23.5 °F 7.2 °F 1021.9 in SSW 7.4 mph 7.4 mph 35 % 0.0 in
13:31 24.4 °F 7.9 °F 1021.9 in SE 3.7 mph 3.7 mph 35 % 0.0 in
13:36 24.9 °F 8.4 °F 1021.9 in SSW 9.7 mph 9.7 mph 35 % 0.0 in
13:41 24.9 °F 8.4 °F 1021.9 in South 9.3 mph 9.3 mph 35 % 0.0 in
13:46 24.8 °F 7.9 °F 1021.9 in West 9.5 mph 9.5 mph 34 % 0.0 in
13:51 24.7 °F 7.3 °F 1021.9 in North 7.4 mph 7.4 mph 33 % 0.0 in
13:56 24.8 °F 7.4 °F 1021.9 in North 7.4 mph 7.4 mph 33 % 0.0 in
14:01 24.3 °F 7.0 °F 1021.9 in West 13.0 mph 13.0 mph 33 % 0.0 in
14:06 24.8 °F 7.0 °F 1021.9 in SW 5.6 mph 5.6 mph 32 % 0.0 in
14:11 24.5 °F 6.7 °F 1021.9 in SSE 9.3 mph 9.3 mph 32 % 0.0 in
14:16 25.2 °F 6.9 °F 1021.9 in SW 5.8 mph 5.8 mph 31 % 0.0 in
14:21 24.9 °F 6.6 °F 1021.9 in SW 9.3 mph 9.3 mph 31 % 0.0 in
14:26 25.5 °F 7.1 °F 1021.9 in SSW 3.7 mph 3.7 mph 31 % 0.0 in
14:31 25.7 °F 6.8 °F 1021.9 in SW 15.6 mph 15.6 mph 30 % 0.0 in
14:36 25.6 °F 6.2 °F 1021.9 in SW 9.3 mph 9.3 mph 29 % 0.0 in
14:41 25.6 °F 6.7 °F 1021.9 in West 7.4 mph 7.4 mph 30 % 0.0 in
14:46 25.3 °F 6.0 °F 1021.9 in SW 14.8 mph 14.8 mph 29 % 0.0 in
14:47 25.3 °F 6.0 °F 1021.9 in WNW 11.1 mph 11.1 mph 29 % 0.0 in
14:52 25.0 °F 5.7 °F 1021.9 in WSW 5.6 mph 5.6 mph 29 % 0.0 in
14:57 25.2 °F 5.4 °F 1021.9 in WNW 9.3 mph 9.3 mph 28 % 0.0 in
15:02 25.4 °F 6.1 °F 1021.9 in South 9.3 mph 9.3 mph 29 % 0.0 in
15:07 25.7 °F 6.3 °F 1021.9 in WNW 9.3 mph 9.3 mph 29 % 0.0 in
15:12 25.4 °F 6.1 °F 1021.9 in WNW 7.4 mph 7.4 mph 29 % 0.0 in
15:17 25.3 °F 5.4 °F 1021.9 in WSW 9.0 mph 9.0 mph 28 % 0.0 in
15:22 25.5 °F 6.2 °F 1021.9 in SSW 5.6 mph 5.6 mph 29 % 0.0 in
15:27 25.4 °F 6.6 °F 1021.9 in SSW 16.1 mph 16.1 mph 30 % 0.0 in
15:32 25.2 °F 6.4 °F 1021.9 in SSW 9.3 mph 9.3 mph 30 % 0.0 in
15:37 25.8 °F 6.9 °F 1021.9 in ESE 3.7 mph 3.7 mph 30 % 0.0 in
15:42 26.1 °F 7.7 °F 1021.9 in NNW 5.6 mph 5.6 mph 31 % 0.0 in
15:47 26.0 °F 7.6 °F 1021.9 in South 5.6 mph 5.6 mph 31 % 0.0 in
15:52 25.9 °F 7.4 °F 1021.9 in South 13.0 mph 13.0 mph 31 % 0.0 in
15:57 25.8 °F 7.4 °F 1021.9 in NE 11.1 mph 11.1 mph 31 % 0.0 in
16:02 25.7 °F 7.3 °F 1021.9 in WSW 9.5 mph 9.5 mph 31 % 0.0 in
16:07 25.5 °F 6.7 °F 1021.9 in SW 13.0 mph 13.0 mph 30 % 0.0 in
16:12 25.9 °F 7.4 °F 1021.9 in SW 9.3 mph 9.3 mph 31 % 0.0 in
16:17 25.7 °F 6.8 °F 1021.9 in SW 13.0 mph 13.0 mph 30 % 0.0 in
16:22 25.7 °F 7.3 °F 1021.9 in South 13.0 mph 13.0 mph 31 % 0.0 in
16:27 25.8 °F 6.9 °F 1021.9 in SW 9.3 mph 9.3 mph 30 % 0.0 in
16:32 25.6 °F 6.7 °F 1021.9 in SW 9.3 mph 9.3 mph 30 % 0.0 in
16:37 25.4 °F 6.6 °F 1021.9 in SSW 13.0 mph 13.0 mph 30 % 0.0 in
16:42 25.4 °F 6.6 °F 1021.9 in West 7.4 mph 7.4 mph 30 % 0.0 in
16:47 25.4 °F 6.6 °F 1021.9 in SSW 7.4 mph 7.4 mph 30 % 0.0 in
16:52 25.5 °F 6.7 °F 1021.9 in WSW 9.3 mph 9.3 mph 30 % 0.0 in
16:57 25.4 °F 6.6 °F 1021.9 in WSW 9.3 mph 9.3 mph 30 % 0.0 in
17:02 25.8 °F 7.4 °F 1021.9 in SSW 7.4 mph 7.4 mph 31 % 0.0 in
17:07 26.1 °F 7.2 °F 1020.9 in South 7.9 mph 7.9 mph 30 % 0.0 in
17:12 25.7 °F 7.3 °F 1020.9 in SSW 9.3 mph 9.3 mph 31 % 0.0 in
17:17 25.2 °F 6.9 °F 1020.9 in South 9.3 mph 9.3 mph 31 % 0.0 in
17:22 25.2 °F 6.9 °F 1021.9 in WSW 9.3 mph 9.3 mph 31 % 0.0 in
17:27 25.0 °F 6.7 °F 1021.9 in SW 13.0 mph 13.0 mph 31 % 0.0 in
17:32 24.3 °F 6.6 °F 1021.9 in SW 18.5 mph 18.5 mph 32 % 0.0 in
17:37 24.3 °F 7.0 °F 1020.9 in SW 14.8 mph 14.8 mph 33 % 0.0 in
17:42 24.3 °F 7.0 °F 1020.9 in SW 7.4 mph 7.4 mph 33 % 0.0 in
17:47 24.4 °F 7.1 °F 1020.9 in WSW 9.3 mph 9.3 mph 33 % 0.0 in
17:52 24.0 °F 6.7 °F 1021.9 in SW 13.0 mph 13.0 mph 33 % 0.0 in
17:57 23.9 °F 7.1 °F 1021.9 in West 16.7 mph 16.7 mph 34 % 0.0 in
18:03 23.9 °F 7.5 °F 1021.9 in South 13.0 mph 13.0 mph 35 % 0.0 in
18:08 23.6 °F 7.2 °F 1021.9 in SSW 13.0 mph 13.0 mph 35 % 0.0 in
18:13 23.3 °F 7.4 °F 1021.9 in SW 5.6 mph 5.6 mph 36 % 0.0 in
18:18 23.4 °F 7.5 °F 1021.9 in SSE 9.3 mph 9.3 mph 36 % 0.0 in
18:23 23.2 °F 7.7 °F 1021.9 in SW 13.0 mph 13.0 mph 37 % 0.0 in
18:28 22.7 °F 7.7 °F 1021.9 in WSW 9.3 mph 9.3 mph 38 % 0.0 in
18:33 22.7 °F 7.7 °F 1021.9 in SSE 13.0 mph 13.0 mph 38 % 0.0 in
18:38 22.6 °F 7.6 °F 1021.9 in SSW 9.3 mph 9.3 mph 38 % 0.0 in
18:43 22.8 °F 8.1 °F 1021.9 in SW 5.6 mph 5.6 mph 39 % 0.0 in
18:48 22.6 °F 7.9 °F 1021.9 in WSW 7.4 mph 7.4 mph 39 % 0.0 in
18:53 22.5 °F 7.8 °F 1021.9 in West 12.2 mph 12.2 mph 39 % 0.0 in
18:58 22.1 °F 7.5 °F 1021.9 in SW 13.0 mph 13.0 mph 39 % 0.0 in
19:03 22.2 °F 7.6 °F 1021.9 in West 3.9 mph 3.9 mph 39 % 0.0 in
19:08 22.0 °F 7.8 °F 1021.9 in SSE 7.9 mph 7.9 mph 40 % 0.0 in
19:13 21.6 °F 7.4 °F 1021.9 in SSE 5.6 mph 5.6 mph 40 % 0.0 in
19:18 21.6 °F 7.4 °F 1021.9 in SW 3.9 mph 3.9 mph 40 % 0.0 in
19:20 15.3 °F 10.1 °F 1026.0 in NE 3.2 mph 4.8 mph 71 % 0.0 in
19:23 21.7 °F 7.5 °F 1021.9 in South 3.7 mph 3.7 mph 40 % 0.0 in
19:28 21.6 °F 7.4 °F 1021.9 in SSE 7.4 mph 7.4 mph 40 % 0.0 in
19:30 15.2 °F 10.2 °F 1026.0 in ENE 3.2 mph 3.2 mph 72 % 0.0 in
19:33 21.2 °F 7.1 °F 1021.9 in ESE 7.4 mph 7.4 mph 40 % 0.0 in
19:38 21.2 °F 7.4 °F 1022.9 in WSW 3.7 mph 3.7 mph 41 % 0.0 in
19:40 15.2 °F 10.0 °F 1026.0 in ENE 1.6 mph 3.2 mph 71 % 0.0 in
19:43 20.7 °F 8.0 °F 1022.9 in SE 7.4 mph 7.4 mph 44 % 0.0 in
19:48 20.1 °F 8.1 °F 1022.9 in ESE 9.3 mph 9.3 mph 46 % 0.0 in
19:50 15.1 °F 10.1 °F 1026.0 in Calm   3.2 mph 72 % 0.0 in
19:53 20.0 °F 8.7 °F 1022.9 in ESE 10.3 mph 10.3 mph 48 % 0.0 in
19:58 19.9 °F 8.9 °F 1022.9 in ENE 13.0 mph 13.0 mph 49 % 0.0 in
20:00 15.0 °F 10.0 °F 1026.0 in Calm   4.8 mph 72 % 0.0 in
20:03 19.4 °F 8.7 °F 1022.9 in ENE 9.3 mph 9.3 mph 50 % 0.0 in
20:08 19.4 °F 9.0 °F 1022.9 in ESE 9.3 mph 9.3 mph 51 % 0.0 in
20:10 15.0 °F 10.0 °F 1026.0 in ESE 1.6 mph 3.2 mph 72 % 0.0 in
20:13 19.2 °F 8.8 °F 1022.9 in SE 9.3 mph 9.3 mph 51 % 0.0 in
20:18 19.1 °F 8.7 °F 1022.9 in ESE 13.0 mph 13.0 mph 51 % 0.0 in
20:20 14.9 °F 9.9 °F 1026.0 in ENE 1.6 mph 1.6 mph 72 % 0.0 in
20:23 19.0 °F 8.6 °F 1022.9 in East 13.0 mph 13.0 mph 51 % 0.0 in
20:28 18.9 °F 8.8 °F 1022.9 in ESE 14.8 mph 14.8 mph 52 % 0.0 in
20:30 14.8 °F 9.8 °F 1026.0 in Calm   3.2 mph 72 % 0.0 in
20:33 18.7 °F 8.6 °F 1022.9 in ENE 9.3 mph 9.3 mph 52 % 0.0 in
20:38 18.6 °F 8.6 °F 1022.9 in ESE 11.1 mph 11.1 mph 52 % 0.0 in
20:40 14.7 °F 9.9 °F 1026.0 in Calm   3.2 mph 73 % 0.0 in
20:43 18.5 °F 8.7 °F 1022.9 in ENE 11.1 mph 11.1 mph 53 % 0.0 in
20:48 18.4 °F 8.7 °F 1022.9 in East 11.1 mph 11.1 mph 53 % 0.0 in
20:50 14.7 °F 9.7 °F 1026.0 in Calm     72 % 0.0 in
20:54 18.2 °F 8.4 °F 1023.9 in East 9.3 mph 9.3 mph 53 % 0.0 in
20:58 18.2 °F 8.4 °F 1023.9 in NNE 9.3 mph 9.3 mph 53 % 0.0 in
21:00 14.6 °F 9.8 °F 1026.0 in Calm     73 % 0.0 in
21:03 18.1 °F 8.4 °F 1023.9 in ESE 9.3 mph 9.3 mph 53 % 0.0 in
21:08 18.0 °F 8.6 °F 1022.9 in ENE 9.0 mph 9.0 mph 54 % 0.0 in
21:10 14.6 °F 9.8 °F 1026.0 in Calm     73 % 0.0 in
21:13 17.8 °F 8.6 °F 1022.9 in ESE 7.4 mph 7.4 mph 55 % 0.0 in
21:18 17.8 °F 8.6 °F 1022.9 in NE 9.3 mph 9.7 mph 55 % 0.0 in
21:20 14.5 °F 9.7 °F 1026.0 in Calm     73 % 0.0 in
21:23 17.6 °F 8.4 °F 1023.9 in East 9.3 mph 9.3 mph 55 % 0.0 in
21:28 17.6 °F 8.7 °F 1023.9 in NNE 7.4 mph 7.4 mph 56 % 0.0 in
21:30 14.4 °F 9.6 °F 1026.0 in Calm   1.6 mph 73 % 0.0 in
21:33 17.5 °F 8.6 °F 1023.9 in ESE 14.8 mph 14.8 mph 56 % 0.0 in
21:38 17.4 °F 8.5 °F 1023.9 in East 9.3 mph 9.3 mph 56 % 0.0 in
21:40 14.3 °F 9.5 °F 1026.0 in Calm     73 % 0.0 in
21:43 17.3 °F 8.4 °F 1023.9 in ENE 11.1 mph 11.1 mph 56 % 0.0 in
21:48 17.3 °F 8.4 °F 1023.9 in NE 9.3 mph 9.3 mph 56 % 0.0 in
21:50 14.1 °F 9.6 °F 1026.0 in Calm   1.6 mph 74 % 0.0 in
21:53 17.2 °F 8.6 °F 1023.9 in ENE 13.0 mph 13.0 mph 57 % 0.0 in
21:58 17.1 °F 8.5 °F 1023.9 in ESE 9.3 mph 9.3 mph 57 % 0.0 in
22:00 14.0 °F 9.4 °F 1024.9 in Calm     74 % 0.0 in
22:03 17.1 °F 8.8 °F 1023.9 in SSE 7.4 mph 7.4 mph 58 % 0.0 in
22:08 17.0 °F 8.9 °F 1023.9 in ESE 7.9 mph 7.9 mph 59 % 0.0 in
22:10 13.8 °F 9.2 °F 1024.9 in Calm     74 % 0.0 in
22:13 16.9 °F 9.3 °F 1023.9 in ESE 5.6 mph 5.6 mph 61 % 0.0 in
22:18 16.8 °F 9.2 °F 1023.9 in NNE 5.6 mph 5.6 mph 61 % 0.0 in
22:20 13.6 °F 9.2 °F 1024.9 in Calm     75 % 0.0 in
22:23 16.6 °F 9.3 °F 1023.9 in ENE 5.8 mph 5.8 mph 62 % 0.0 in
22:28 16.6 °F 9.5 °F 1023.9 in ESE 9.3 mph 9.3 mph 63 % 0.0 in
22:30 13.4 °F 9.1 °F 1024.9 in Calm     75 % 0.0 in
22:33 16.5 °F 9.9 °F 1023.9 in ESE 9.3 mph 9.3 mph 65 % 0.0 in
22:38 16.4 °F 10.1 °F 1022.9 in ENE 9.3 mph 9.3 mph 66 % 0.0 in
22:40 13.3 °F 8.9 °F 1024.9 in Calm     75 % 0.0 in
22:43 16.3 °F 9.9 °F 1022.9 in East 5.6 mph 5.6 mph 66 % 0.0 in
22:48 16.3 °F 10.2 °F 1022.9 in East 9.3 mph 9.3 mph 67 % 0.0 in
22:50 13.2 °F 9.1 °F 1024.9 in Calm   1.6 mph 76 % 0.0 in
22:53 16.3 °F 10.4 °F 1023.9 in ENE 6.1 mph 6.1 mph 68 % 0.0 in
22:58 16.2 °F 10.3 °F 1023.9 in NE 7.4 mph 7.4 mph 68 % 0.0 in
23:00 13.1 °F 8.9 °F 1024.9 in Calm   1.6 mph 76 % 0.0 in
23:03 16.2 °F 10.3 °F 1023.9 in ENE 9.3 mph 9.3 mph 68 % 0.0 in
23:08 16.1 °F 10.4 °F 1024.9 in ENE 5.3 mph 5.3 mph 69 % 0.0 in
23:10 13.0 °F 9.1 °F 1024.9 in Calm     77 % 0.0 in
23:13 16.1 °F 10.4 °F 1024.9 in East 5.8 mph 5.8 mph 69 % 0.0 in
23:18 16.0 °F 10.3 °F 1024.9 in ESE 5.8 mph 5.8 mph 69 % 0.0 in
23:20 12.8 °F 8.9 °F 1024.9 in Calm     77 % 0.0 in
23:23 16.0 °F 10.6 °F 1024.9 in ESE 7.4 mph 7.4 mph 70 % 0.0 in
23:28 15.9 °F 10.4 °F 1024.9 in East 3.7 mph 4.2 mph 70 % 0.0 in
23:30 12.6 °F 8.7 °F 1024.9 in Calm   1.6 mph 77 % 0.0 in
23:33 15.9 °F 10.4 °F 1024.9 in ENE 5.6 mph 5.6 mph 70 % 0.0 in
23:38 15.9 °F 10.8 °F 1026.0 in ENE 5.6 mph 5.6 mph 72 % 0.0 in
23:40 12.6 °F 8.9 °F 1024.9 in Calm     78 % 0.0 in
23:43 15.8 °F 10.6 °F 1026.0 in NE 6.4 mph 6.4 mph 71 % 0.0 in
23:44 15.8 °F 10.6 °F 1026.0 in ENE 7.4 mph 7.4 mph 71 % 0.0 in
23:49 15.7 °F 10.4 °F 1026.0 in East 7.4 mph 7.4 mph 71 % 0.0 in
23:50 12.5 °F 8.8 °F 1024.9 in Calm     78 % 0.0 in
23:54 15.6 °F 10.3 °F 1026.0 in ENE 4.7 mph 4.7 mph 71 % 0.0 in
23:59 15.6 °F 10.3 °F 1026.0 in East 3.7 mph 3.7 mph 71 % 0.0 in
Meteo Sesrovires
Elogis d' Weather Underground - 2 mb

Guio original per  Jim McMurry - jmcmurry@mwt.net Adaptat per a la plantilla per  Wim van der Kuil - Leuven-Template.eu

Trobareu la nostra informacio del temps tambe a:

Weather Underground

AWEKAS